SPHI/CIX METAR and TAF weather

Enter ICAO airport designator
Station Type Date Time Source
SPHI METAR 2022/06/25 23:00 UTC NOAA

SPHI 252300Z 18018KT CAVOK 18/14 Q1013 RMK BIRD HAZARD RWY 19/01 PP000


Station Type Date Time Source
SPHI Decoded METAR 2022/06/25 23:00 UTC NOAA

Chiclayo, Peru (SPHI) 06-47S 079-50W 34M
Jun 25, 2022 - 07:00 PM EDT / 2022.06.25 2300 UTC
Wind: from the S (180 degrees) at 21 MPH (18 KT):0
Visibility: greater than 7 mile(s):0
Temperature: 64 F (18 C)
Dew Point: 57 F (14 C)
Relative Humidity: 77%
Pressure (altimeter): 29.91 in. Hg (1013 hPa)
ob: SPHI 252300Z 18018KT CAVOK 18/14 Q1013 RMK BIRD HAZARD RWY 19/01 PP000
cycle: 23

Station Type Date Time Source
SPHI TAF 2022/06/25 18:37 UTC NOAA

TAF SPHI 251700Z 2518/2618 18016KT CAVOK TX24/2519Z TN16/2611Z
FM260930 18007KT 9999 SCT014
TEMPO 2612/2614 BKN012
FM261430 18013KT CAVOK

Example: see airport list